Data for 05/18/2007

Time Sea-Level Adjusted Pressure Absolute Pressure Temperature Relative Humidity Dew Point   
(mb) (inHg) (mb) (inHg) (C) (F) (%) (C) (F)
00:05 1016 30 845 24.95 17.5 63.5 42 4.6 40.2
00:10 1016 30 845 24.95 16.9 62.4 46 5.3 41.5
00:15 1016 30 845 24.95 16.7 62.1 45 4.8 40.6
00:20 1016 30 845 24.95 16.5 61.7 45 4.6 40.2
00:25 1016 30 845 24.95 16.4 61.6 44 4.4 39.9
00:30 1016 30 845 24.95 16.7 62 41 3.6 38.5
00:35 1016 30 845 24.95 17 62.6 40 3.3 38
00:40 1016 30 845 24.95 16.9 62.4 42 4.1 39.4
00:45 1016 30 845 24.95 16.5 61.7 43 3.9 39.1
00:50 1016 30 845 24.95 16.3 61.3 44 4.2 39.5
00:55 1016 30 845 24.95 16.1 61 45 4.4 39.9
01:00 1016 30 845 24.95 16.1 61 48 5.2 41.3
01:05 1016 30 845 24.95 16.2 61.1 44 4.2 39.5
01:10 1016 30 845 24.95 16.1 60.9 44 3.9 39
01:15 1016 30 845 24.95 15.8 60.4 48 5 41
01:20 1016 30 845 24.95 15.1 59.2 51 5.2 41.3
01:25 1016 30 845 24.95 14.9 58.7 53 5.3 41.6
01:30 1016 30 845 24.95 14.5 58.1 53 5 41.1
01:35 1016 30 845 24.95 14.6 58.2 51 4.6 40.3
01:40 1016 30 845 24.95 14.6 58.3 53 5.2 41.3
01:45 1015 29.97 845 24.95 14.3 57.8 52 4.6 40.3
01:50 1015 29.97 845 24.95 14.9 58.8 47 3.6 38.6
01:55 1015 29.97 845 24.95 15 59.1 48 4.4 39.8
02:00 1015 29.97 845 24.95 14.8 58.6 51 4.8 40.6
02:05 1015 29.97 845 24.95 14.1 57.4 54 5 41.1
02:10 1015 29.97 845 24.95 14.4 57.9 49 4 39.1
02:15 1015 29.97 845 24.95 14.8 58.6 48 3.9 39
02:20 1015 29.97 845 24.95 14.9 58.8 47 3.6 38.5
02:25 1015 29.97 845 24.95 14.9 58.8 48 4.1 39.4
02:30 1015 29.97 844 24.92 14.8 58.7 47 3.7 38.7
02:35 1015 29.97 844 24.92 14.7 58.5 48 4 39.2
02:40 1015 29.97 844 24.92 14.4 58 50 4.3 39.8
02:45 1015 29.97 844 24.92 14 57.2 51 4.2 39.5
02:50 1015 29.97 844 24.92 13.8 56.8 51 4 39.2
02:55 1015 29.97 844 24.92 13.7 56.6 52 4 39.2
03:00 1015 29.97 845 24.95 13.8 56.8 50 3.6 38.4
03:05 1015 29.97 844 24.92 14.3 57.7 48 3.6 38.5
03:10 1015 29.97 844 24.92 14.2 57.5 49 3.7 38.6
03:15 1015 29.97 844 24.92 14.2 57.6 50 4.1 39.4
03:20 1015 29.97 845 24.95 13.8 56.8 51 4 39.1
03:25 1015 29.97 844 24.92 13.3 56 53 3.9 39.1
03:30 1015 29.97 845 24.95 13.1 55.6 53 3.8 38.8
03:35 1015 29.97 845 24.95 13.3 56 50 3.3 37.9
03:40 1015 29.97 845 24.95 13.6 56.4 50 3.3 37.9
03:45 1015 29.97 845 24.95 13.6 56.6 49 3.2 37.7
03:50 1015 29.97 845 24.95 14 57.1 47 2.9 37.2
03:55 1016 30 845 24.95 14.2 57.5 46 2.9 37.3
04:00 1016 30 845 24.95 14.3 57.7 47 3 37.5
04:05 1016 30 845 24.95 14.1 57.3 46 2.7 36.8
04:10 1016 30 845 24.95 14.1 57.3 47 2.9 37.3
04:15 1016 30 845 24.95 14 57.3 46 2.7 36.9
04:20 1016 30 845 24.95 13.9 57 48 3.2 37.8
04:25 1016 30 845 24.95 13.6 56.5 49 3.1 37.6
04:30 1016 30 845 24.95 13.7 56.6 48 2.8 37.1
04:35 1016 30 845 24.95 13.7 56.7 48 2.9 37.3
04:40 1016 30 846 24.98 13.7 56.7 49 3.3 37.9
04:45 1016 30 846 24.98 13.4 56.1 50 3.3 37.9
04:50 1017 30.03 846 24.98 13.4 56.1 51 3.6 38.5
04:55 1017 30.03 846 24.98 13 55.4 54 3.9 38.9
05:00 1017 30.03 846 24.98 12.3 54.2 58 4.3 39.8
05:05 1016 30 846 24.98 11.6 52.8 59 3.8 38.8
05:10 1017 30.03 846 24.98 11.6 52.9 58 3.6 38.5
05:15 1017 30.03 846 24.98 11.8 53.2 57 3.7 38.6
05:20 1016 30 845 24.95 12.5 54.4 51 2.8 37
05:25 1016 30 845 24.95 13 55.3 51 3.2 37.8
05:30 1016 30 845 24.95 13 55.3 55 4.2 39.5
05:35 1016 30 846 24.98 12.4 54.3 56 4 39.2
05:40 1016 30 845 24.95 12.1 53.8 56 3.7 38.7
05:45 1016 30 845 24.95 12.3 54.2 54 3.3 37.9
05:50 1016 30 845 24.95 12.6 54.6 53 3.2 37.8
05:55 1016 30 845 24.95 12.8 55 52 3.3 37.9
06:00 1016 30 845 24.95 13 55.4 52 3.3 38
06:05 1016 30 845 24.95 12.9 55.2 54 3.9 39
06:10 1016 30 845 24.95 12.8 55 53 3.5 38.2
06:15 1016 30 845 24.95 12.5 54.6 54 3.5 38.3
06:20 1016 30 846 24.98 12.6 54.7 51 2.8 37
06:25 1016 30 846 24.98 13.1 55.6 50 3 37.5
06:30 1016 30 846 24.98 13 55.4 51 3.2 37.7
06:35 1017 30.03 846 24.98 12.8 55 52 3.2 37.8
06:40 1017 30.03 846 24.98 13.2 55.7 50 3.2 37.7
06:45 1017 30.03 846 24.98 13.2 55.8 51 3.4 38.2
06:50 1017 30.03 846 24.98 13.2 55.8 51 3.3 38
06:55 1017 30.03 846 24.98 13.5 56.4 48 2.9 37.2
07:00 1017 30.03 846 24.98 13.9 57 47 2.9 37.2
07:05 1017 30.03 846 24.98 14.1 57.5 50 3.9 39.1
07:10 1017 30.03 846 24.98 14.1 57.4 50 4 39.1
07:15 1017 30.03 846 24.98 14.1 57.4 49 3.8 38.8
07:20 1017 30.03 846 24.98 14.4 57.8 49 3.8 38.8
07:25 1017 30.03 846 24.98 14.7 58.4 45 3 37.3
07:30 1017 30.03 847 25.01 15 59 46 3.7 38.6
07:35 1017 30.03 847 25.01 15.1 59.1 45 3.4 38.2
07:40 1017 30.03 847 25.01 15.3 59.5 46 3.8 38.8
07:45 1017 30.03 847 25.01 15.5 59.8 44 3.4 38.1
07:50 1017 30.03 847 25.01 15.9 60.6 43 3.6 38.4
07:55 1018 30.06 847 25.01 16.3 61.4 41 3.2 37.7
08:00 1017 30.03 847 25.01 16.1 61 47 4.9 40.8
08:05 1018 30.06 847 25.01 15.7 60.2 46 4.2 39.5
08:10 1018 30.06 847 25.01 16.1 61 46 4.7 40.4
08:15 1018 30.06 847 25.01 16.9 62.5 42 3.9 39
08:20 1018 30.06 847 25.01 17.3 63.2 39 3.3 37.9
08:25 1018 30.06 847 25.01 17.6 63.6 38 3.3 37.9
08:30 1018 30.06 847 25.01 17.2 62.9 40 3.5 38.3
08:35 1018 30.06 847 25.01 17.4 63.4 39 3.5 38.3
08:40 1018 30.06 847 25.01 17.9 64.2 37 3.3 38
08:45 1018 30.06 847 25.01 17.9 64.2 38 3.5 38.3
08:50 1018 30.06 847 25.01 17.7 63.8 40 3.8 38.9
08:55 1018 30.06 847 25.01 17.5 63.4 41 4.2 39.6
09:00 1018 30.06 847 25.01 17.9 64.2 40 4.3 39.7
09:05 1018 30.06 847 25.01 17.8 64.1 41 4.6 40.3
09:10 1018 30.06 847 25.01 17.8 64 40 4 39.2
09:15 1018 30.06 847 25.01 18.6 65.5 39 4.4 39.8
09:20 1018 30.06 847 25.01 18.4 65.2 41 5 41.1
09:25 1018 30.06 847 25.01 18.4 65 39 4.4 39.9
09:30 1018 30.06 847 25.01 18.4 65.2 35 3 37.3
09:35 1018 30.06 847 25.01 18.6 65.5 38 4 39.2
09:40 1018 30.06 847 25.01 19 66.3 36 3.6 38.6
09:45 1018 30.06 847 25.01 18.9 66 35 3.3 38
09:50 1018 30.06 847 25.01 19.3 66.7 34 3.1 37.5
09:55 1018 30.06 847 25.01 20.2 68.3 32 3 37.4
10:00 1018 30.06 847 25.01 20.3 68.5 31 2.9 37.2
10:05 1018 30.06 847 25.01 19.8 67.6 32 2.9 37.3
10:10 1018 30.06 847 25.01 20.2 68.3 32 3 37.5
10:15 1018 30.06 847 25.01 20 68.1 32 3 37.4
10:20 1018 30.06 847 25.01 20.5 68.9 30 2.6 36.8
10:25 1018 30.06 847 25.01 21.4 70.6 28 2.5 36.5
10:30 1018 30.06 847 25.01 21.7 71.1 28 2.7 36.8
10:35 1018 30.06 847 25.01 21.5 70.7 30 3.5 38.3
10:40 1018 30.06 847 25.01 21.6 70.8 30 3.3 37.9
10:45 1018 30.06 847 25.01 22.5 72.4 28 3.5 38.3
10:50 1018 30.06 847 25.01 22.8 73.1 26 2.7 36.9
10:55 1018 30.06 847 25.01 23 73.4 27 3.4 38.1
11:00 1018 30.06 847 25.01 23.1 73.6 27 3.2 37.8
11:05 1018 30.06 847 25.01 21.7 71.1 30 3.7 38.7
11:10 1018 30.06 847 25.01 21.9 71.4 29 3.1 37.7
11:15 1018 30.06 847 25.01 22 71.7 30 3.9 39.1
11:20 1018 30.06 847 25.01 22.7 72.9 27 3.2 37.7
11:25 1018 30.06 847 25.01 22.7 72.9 29 3.9 39
11:30 1018 30.06 847 25.01 23 73.3 29 4.2 39.6
11:35 1018 30.06 847 25.01 23.3 74 29 4.4 39.9
11:40 1017 30.03 847 25.01 23.8 74.8 29 4.9 40.8
11:45 1017 30.03 847 25.01 23.8 74.8 29 5.1 41.2
11:50 1017 30.03 847 25.01 23.6 74.4 31 5.6 42
11:55 1017 30.03 846 24.98 23.6 74.5 29 4.8 40.6
12:00 1017 30.03 846 24.98 23.4 74.2 27 3.8 38.8
12:05 1017 30.03 846 24.98 23.6 74.5 29 4.7 40.4
12:10 1017 30.03 846 24.98 23.8 74.9 28 4.5 40.2
12:15 1017 30.03 846 24.98 23.7 74.7 26 3.1 37.6
12:20 1017 30.03 846 24.98 23.5 74.4 25 2.7 36.9
12:25 1017 30.03 846 24.98 24 75.2 26 3.8 38.8
12:30 1017 30.03 846 24.98 24.7 76.4 26 4.1 39.4
12:35 1017 30.03 846 24.98 25 77.1 25 4.1 39.4
12:40 1017 30.03 846 24.98 25 77.1 25 3.6 38.5
12:45 1017 30.03 846 24.98 24.7 76.5 26 3.9 39.1
12:50 1017 30.03 846 24.98 24.1 75.4 26 3.7 38.7
12:55 1017 30.03 846 24.98 25 76.9 26 4.1 39.4
13:00 1017 30.03 846 24.98 25.7 78.3 24 4.1 39.4
13:05 1017 30.03 846 24.98 25.6 78 24 3.6 38.5
13:10 1017 30.03 846 24.98 25.8 78.4 24 3.9 39
13:15 1017 30.03 846 24.98 26.1 78.9 24 4.1 39.3
13:20 1017 30.03 846 24.98 25.9 78.6 24 4.2 39.6
13:25 1017 30.03 846 24.98 25.4 77.7 26 4.7 40.4
13:30 1017 30.03 846 24.98 25.7 78.2 25 4.5 40.1
13:35 1016 30 846 24.98 26.4 79.4 23 3.6 38.5
13:40 1016 30 846 24.98 26.3 79.4 21 2.4 36.3
13:45 1016 30 846 24.98 26.1 79 21 2.6 36.7
13:50 1016 30 845 24.95 25.6 78.1 19 0.7 33.2
13:55 1016 30 845 24.95 25.5 77.9 19 0.2 32.4
14:00 1016 30 845 24.95 26 78.9 21 2.6 36.7
14:05 1016 30 845 24.95 26 78.7 19 0.7 33.3
14:10 1016 30 845 24.95 25.6 78 21 2.1 35.8
14:15 1016 30 845 24.95 25.5 77.9 21 1.6 35
14:20 1016 30 845 24.95 25.4 77.7 21 1.8 35.2
14:25 1016 30 845 24.95 26.2 79.2 19 1.3 34.3
14:30 1016 30 845 24.95 26 78.8 19 0.9 33.6
14:35 1016 30 845 24.95 25.3 77.5 21 1.7 35
14:40 1016 30 845 24.95 25.5 78 21 1.7 35.1
14:45 1016 30 845 24.95 25.9 78.6 22 2.6 36.7
14:50 1016 30 845 24.95 26.2 79.2 20 1.7 35.1
14:55 1016 30 845 24.95 26.6 80 19 1.3 34.3
15:00 1016 30 845 24.95 26.2 79.2 19 0.8 33.5
15:05 1016 30 845 24.95 26 78.7 20 1.6 34.8
15:10 1016 30 845 24.95 26.4 79.6 20 1.8 35.3
15:15 1016 30 845 24.95 27 80.6 19 1.8 35.2
15:20 1016 30 845 24.95 27.6 81.6 18 1.7 35.1
15:25 1016 30 845 24.95 27.4 81.3 18 1.1 34
15:30 1016 30 845 24.95 27.3 81.1 18 1.1 34
15:35 1016 30 845 24.95 27.6 81.6 18 1.4 34.5
15:40 1016 30 845 24.95 27 80.6 19 1.9 35.4
15:45 1016 30 845 24.95 27 80.6 19 1.4 34.5
15:50 1016 30 845 24.95 26.1 79 20 1.4 34.5
15:55 1016 30 845 24.95 26.2 79.2 19 1.3 34.4
16:00 1016 30 845 24.95 26.8 80.2 18 0.9 33.6
16:05 1016 30 845 24.95 27.2 81 19 1.6 34.9
16:10 1016 30 845 24.95 26.7 80 18 0.7 33.3
16:15 1016 30 845 24.95 26.5 79.6 19 1 33.8
16:20 1016 30 845 24.95 27.3 81.1 18 1.2 34.1
16:25 1016 30 845 24.95 27.5 81.4 19 1.8 35.2
16:30 1016 30 845 24.95 27.7 81.8 18 1.8 35.2
16:35 1016 30 845 24.95 26.8 80.2 19 1.3 34.3
16:40 1016 30 845 24.95 26.4 79.5 20 1.8 35.2
16:45 1016 30 845 24.95 24.4 76 23 2.4 36.4
16:50 1016 30 845 24.95 22.8 73 24 1.2 34.1
16:55 1016 30 845 24.95 22.5 72.4 26 2.1 35.8
17:00 1016 30 845 24.95 22.4 72.3 25 1.5 34.7
17:05 1016 30 845 24.95 22.1 71.7 25 1.5 34.7
17:10 1015 29.97 845 24.95 21.6 70.8 26 1.6 34.8
17:15 1015 29.97 845 24.95 21.4 70.4 27 1.6 34.8
17:20 1015 29.97 844 24.92 21.3 70.3 28 2.2 36
17:25 1015 29.97 845 24.95 21.3 70.3 26 1.4 34.5
17:30 1015 29.97 845 24.95 21.2 70.2 28 2 35.7
17:35 1015 29.97 844 24.92 21 69.8 29 2.3 36.2
17:40 1016 30 845 24.95 20.5 69 30 2.6 36.7
17:45 1016 30 845 24.95 20.2 68.4 35 4.3 39.8
17:50 1016 30 845 24.95 20 67.9 39 5.6 42
17:55 1016 30 846 24.98 20.2 68.4 30 2.2 36
18:00 1017 30.03 846 24.98 20.8 69.4 39 6.5 43.8
18:05 1017 30.03 846 24.98 19.7 67.5 45 7.6 45.7
18:10 1017 30.03 846 24.98 18.2 64.8 50 7.6 45.7
18:15 1016 30 846 24.98 17.8 64.1 48 6.8 44.3
18:20 1016 30 846 24.98 18.9 66 48 7.7 45.8
18:25 1016 30 845 24.95 19.1 66.4 47 7.8 46
18:30 1016 30 845 24.95 19.4 66.9 46 7.6 45.7
18:35 1016 30 845 24.95 20.2 68.4 36 4.8 40.6
18:40 1016 30 845 24.95 20.4 68.7 41 6.7 44.1
18:45 1016 30 845 24.95 20.3 68.6 40 6.5 43.7
18:50 1016 30 845 24.95 20.4 68.7 43 7.6 45.7
18:55 1016 30 845 24.95 19.9 67.9 44 7.4 45.3
19:00 1016 30 845 24.95 19.4 67 44 6.9 44.4
19:05 1016 30 845 24.95 19.4 66.9 42 6.2 43.2
19:10 1016 30 845 24.95 19.3 66.7 43 6.6 43.8
19:15 1016 30 845 24.95 19.3 66.8 41 6.1 42.9
19:20 1016 30 845 24.95 19.3 66.7 41 5.9 42.6
19:25 1016 30 845 24.95 19.1 66.3 42 6.1 42.9
19:30 1016 30 845 24.95 18.9 66.1 42 5.7 42.3
19:35 1016 30 845 24.95 18.9 65.9 42 5.7 42.3
19:40 1016 30 845 24.95 18.8 65.8 41 5.5 41.8
19:45 1016 30 845 24.95 18.8 65.8 42 5.6 42.1
19:50 1016 30 845 24.95 18.7 65.6 42 5.6 42.1
19:55 1016 30 845 24.95 18.6 65.4 42 5.4 41.7
20:00 1016 30 845 24.95 18.4 65.1 43 5.7 42.2
20:05 1016 30 845 24.95 18.2 64.8 44 5.9 42.5
20:10 1016 30 845 24.95 18.2 64.7 43 5.6 42
20:15 1016 30 845 24.95 18.2 64.7 43 5.7 42.2
20:20 1016 30 845 24.95 18.2 64.7 44 5.8 42.4
20:25 1016 30 845 24.95 18.1 64.6 44 5.6 42.1
20:30 1016 30 845 24.95 18.2 64.8 42 5.2 41.3
20:35 1016 30 845 24.95 18.3 64.9 43 5.4 41.8
20:40 1016 30 845 24.95 18.2 64.7 43 5.7 42.2
20:45 1016 30 846 24.98 18.1 64.5 45 6 42.8
20:50 1016 30 846 24.98 18.3 64.9 42 5.1 41.2
20:55 1017 30.03 846 24.98 18.7 65.7 39 4.5 40
21:00 1017 30.03 846 24.98 19.1 66.3 40 5.1 41.3
21:05 1017 30.03 846 24.98 19.1 66.4 43 6.3 43.4
21:10 1017 30.03 846 24.98 19.1 66.3 47 7.8 46
21:15 1017 30.03 846 24.98 18.6 65.5 45 6.6 43.8
21:20 1016 30 845 24.95 18.5 65.3 44 6.3 43.3
21:25 1016 30 846 24.98 18.4 65.2 46 6.6 43.8
21:30 1017 30.03 846 24.98 18.3 64.9 45 6.4 43.5
21:35 1017 30.03 846 24.98 18.2 64.8 44 5.8 42.4
21:40 1017 30.03 846 24.98 18.2 64.7 46 6.5 43.7
21:45 1017 30.03 846 24.98 18 64.4 49 7.4 45.3
21:50 1017 30.03 846 24.98 17.6 63.7 50 7.1 44.8
21:55 1017 30.03 846 24.98 17.5 63.5 51 7.3 45.1
22:00 1017 30.03 846 24.98 17.4 63.3 50 7 44.6
22:05 1017 30.03 846 24.98 17.5 63.4 49 6.7 44.1
22:10 1017 30.03 846 24.98 17.4 63.3 45 5.5 42
22:15 1017 30.03 846 24.98 17.3 63.1 45 5.3 41.5
22:20 1017 30.03 847 25.01 17.2 63 45 5.4 41.6
22:25 1017 30.03 847 25.01 17.1 62.8 46 5.5 41.9
22:30 1017 30.03 846 24.98 17 62.7 46 5.6 42.1
22:35 1017 30.03 847 25.01 16.9 62.4 47 5.7 42.2
22:40 1017 30.03 847 25.01 16.7 62.1 48 5.8 42.4
22:45 1018 30.06 847 25.01 16.5 61.6 50 6.1 43
22:50 1018 30.06 847 25.01 16.2 61.1 52 6.4 43.6
22:55 1018 30.06 847 25.01 16.1 60.9 53 6.4 43.6
23:00 1018 30.06 847 25.01 16 60.8 52 6.4 43.5
23:05 1018 30.06 847 25.01 15.9 60.7 53 6.4 43.5
23:10 1018 30.06 847 25.01 15.8 60.5 53 6.2 43.2
23:15 1018 30.06 847 25.01 15.9 60.6 52 6.2 43.1
23:20 1017 30.03 847 25.01 16 60.8 51 6 42.8
23:25 1017 30.03 846 24.98 16.1 60.9 51 6.1 43
23:30 1017 30.03 846 24.98 15.8 60.5 53 6.2 43.2
23:35 1017 30.03 846 24.98 15.7 60.2 53 6.1 42.9
23:40 1017 30.03 846 24.98 15.7 60.2 52 5.9 42.6
23:45 1017 30.03 846 24.98 15.7 60.3 52 6 42.8
23:50 1017 30.03 847 25.01 15.6 60.1 53 6.1 43.1
23:55 1017 30.03 847 25.01 15.5 59.9 53 6.1 43
24:00 1017 30.03 847 25.01 15.3 59.6 54 6.1 42.9